SWA2286 KHOU-KABQ
Flight info
| Callsign | SWA2286 |
|---|---|
| Flight time | 2h 2m |
| Altitude | 38000 |
| Route | RETYR8 JCT SJT RECKN COLTR4 |
| Aircraft | B738/M-SADE2E3GIJ4RWZ/LB1D1 |
Departure
| Time | 2026-04-29 14:02 |
|---|---|
| Airport | William P. Hobby Airport (KHOU) |
Arrival
| Time | 2026-04-29 16:05 |
|---|---|
| Airport | Albuquerque International Sunport (KABQ) |
| Time | Latitude | Longitude | Altitude | Speed | Heading |
|---|---|---|---|---|---|
| 2026-04-29 13:46 | 29.65305 | -95.27801 | 49 ft | 0 kts | 157° |
| 2026-04-29 13:53 | 29.65309 | -95.27803 | 51 ft | 3 kts | 157° |
| 2026-04-29 13:53 | 29.65333 | -95.27813 | 46 ft | 4 kts | 178° |
| 2026-04-29 13:54 | 29.65356 | -95.27806 | 51 ft | 4 kts | 229° |
| 2026-04-29 13:54 | 29.65365 | -95.27788 | 51 ft | 1 kts | 248° |
| 2026-04-29 13:54 | 29.65366 | -95.27785 | 51 ft | 0 kts | 248° |
| 2026-04-29 13:57 | 29.65363 | -95.27795 | 51 ft | 4 kts | 248° |
| 2026-04-29 13:57 | 29.65344 | -95.27851 | 46 ft | 10 kts | 248° |
| 2026-04-29 13:58 | 29.65309 | -95.27942 | 49 ft | 15 kts | 236° |
| 2026-04-29 13:58 | 29.65230 | -95.28010 | 51 ft | 14 kts | 198° |
| 2026-04-29 13:58 | 29.65155 | -95.27956 | 50 ft | 13 kts | 134° |
| 2026-04-29 13:58 | 29.65100 | -95.27872 | 51 ft | 13 kts | 107° |
| 2026-04-29 13:59 | 29.65099 | -95.27772 | 51 ft | 13 kts | 87° |
| 2026-04-29 13:59 | 29.65102 | -95.27672 | 51 ft | 12 kts | 92° |
| 2026-04-29 13:59 | 29.65101 | -95.27575 | 51 ft | 12 kts | 89° |
| 2026-04-29 13:59 | 29.65102 | -95.27473 | 51 ft | 14 kts | 90° |
| 2026-04-29 14:00 | 29.65127 | -95.27366 | 48 ft | 14 kts | 49° |
| 2026-04-29 14:00 | 29.65197 | -95.27288 | 51 ft | 14 kts | 45° |
| 2026-04-29 14:00 | 29.65281 | -95.27193 | 50 ft | 21 kts | 44° |
| 2026-04-29 14:00 | 29.65406 | -95.27058 | 48 ft | 27 kts | 43° |
| 2026-04-29 14:01 | 29.65460 | -95.26952 | 51 ft | 16 kts | 114° |
| 2026-04-29 14:01 | 29.65377 | -95.26914 | 51 ft | 15 kts | 217° |
| 2026-04-29 14:01 | 29.65291 | -95.27007 | 49 ft | 30 kts | 223° |
| 2026-04-29 14:01 | 29.64945 | -95.27390 | 49 ft | 106 kts | 223° |
| 2026-04-29 14:02 | 29.64247 | -95.28152 | 53 ft | 168 kts | 223° |
| 2026-04-29 14:02 | 29.63398 | -95.29103 | 845 ft | 160 kts | 222° |
| 2026-04-29 14:02 | 29.62660 | -95.29972 | 1837 ft | 152 kts | 223° |
| 2026-04-29 14:02 | 29.61903 | -95.30883 | 2259 ft | 169 kts | 223° |
| 2026-04-29 14:03 | 29.60995 | -95.31901 | 2468 ft | 193 kts | 222° |
| 2026-04-29 14:03 | 29.60351 | -95.33323 | 2591 ft | 218 kts | 263° |
| 2026-04-29 14:03 | 29.60660 | -95.35100 | 2877 ft | 235 kts | 283° |
| 2026-04-29 14:03 | 29.61170 | -95.36915 | 3287 ft | 240 kts | 283° |
| 2026-04-29 14:04 | 29.61675 | -95.38748 | 3762 ft | 241 kts | 282° |
| 2026-04-29 14:04 | 29.62174 | -95.40586 | 4312 ft | 239 kts | 283° |
| 2026-04-29 14:04 | 29.62669 | -95.42424 | 4782 ft | 247 kts | 282° |
| 2026-04-29 14:04 | 29.63187 | -95.44381 | 5133 ft | 260 kts | 282° |
| 2026-04-29 14:05 | 29.63713 | -95.46371 | 5858 ft | 266 kts | 283° |
| 2026-04-29 14:05 | 29.64255 | -95.48422 | 6670 ft | 269 kts | 283° |
| 2026-04-29 14:05 | 29.64799 | -95.50491 | 7421 ft | 273 kts | 284° |
| 2026-04-29 14:05 | 29.65352 | -95.52596 | 8173 ft | 277 kts | 285° |
| 2026-04-29 14:06 | 29.65909 | -95.54727 | 8939 ft | 279 kts | 285° |
| 2026-04-29 14:06 | 29.66473 | -95.56881 | 9608 ft | 283 kts | 286° |
| 2026-04-29 14:06 | 29.67044 | -95.59067 | 10167 ft | 287 kts | 287° |
| 2026-04-29 14:06 | 29.67635 | -95.61338 | 10455 ft | 308 kts | 287° |
| 2026-04-29 14:07 | 29.68272 | -95.63785 | 10637 ft | 330 kts | 287° |
| 2026-04-29 14:07 | 29.68948 | -95.66387 | 10788 ft | 350 kts | 287° |
| 2026-04-29 14:07 | 29.69656 | -95.69111 | 10914 ft | 368 kts | 286° |
| 2026-04-29 14:07 | 29.70406 | -95.72002 | 11083 ft | 383 kts | 287° |
| 2026-04-29 14:08 | 29.71173 | -95.74961 | 11529 ft | 388 kts | 286° |
| 2026-04-29 14:08 | 29.71955 | -95.77945 | 12106 ft | 389 kts | 288° |
| 2026-04-29 14:08 | 29.72994 | -95.80819 | 12687 ft | 391 kts | 297° |
| 2026-04-29 14:08 | 29.74413 | -95.83491 | 13224 ft | 393 kts | 301° |
| 2026-04-29 14:09 | 29.75866 | -95.86173 | 13743 ft | 396 kts | 300° |
| 2026-04-29 14:09 | 29.77299 | -95.88884 | 14228 ft | 397 kts | 300° |
| 2026-04-29 14:09 | 29.78719 | -95.91623 | 14762 ft | 397 kts | 299° |
| 2026-04-29 14:09 | 29.80128 | -95.94362 | 15251 ft | 398 kts | 299° |
| 2026-04-29 14:10 | 29.81523 | -95.97080 | 15728 ft | 400 kts | 298° |
| 2026-04-29 14:10 | 29.82945 | -95.99851 | 16216 ft | 401 kts | 298° |
| 2026-04-29 14:10 | 29.84368 | -96.02622 | 16683 ft | 402 kts | 298° |
| 2026-04-29 14:10 | 29.85798 | -96.05404 | 17140 ft | 404 kts | 298° |
| 2026-04-29 14:11 | 29.87235 | -96.08201 | 17584 ft | 405 kts | 298° |
| 2026-04-29 14:11 | 29.88675 | -96.11006 | 18040 ft | 406 kts | 298° |
| 2026-04-29 14:11 | 29.90117 | -96.13815 | 18464 ft | 407 kts | 298° |
| 2026-04-29 14:11 | 29.91559 | -96.16628 | 18799 ft | 409 kts | 298° |
| 2026-04-29 14:12 | 29.92913 | -96.19472 | 19122 ft | 410 kts | 292° |
| 2026-04-29 14:12 | 29.93926 | -96.22547 | 19447 ft | 410 kts | 285° |
| 2026-04-29 14:12 | 29.94537 | -96.25769 | 19781 ft | 411 kts | 279° |
| 2026-04-29 14:12 | 29.95020 | -96.29029 | 20125 ft | 413 kts | 279° |
| 2026-04-29 14:13 | 29.95513 | -96.32301 | 20441 ft | 415 kts | 279° |
| 2026-04-29 14:13 | 29.96017 | -96.35579 | 20761 ft | 416 kts | 279° |
| 2026-04-29 14:13 | 29.96530 | -96.38878 | 21121 ft | 417 kts | 279° |
| 2026-04-29 14:13 | 29.97045 | -96.42167 | 21487 ft | 418 kts | 279° |
| 2026-04-29 14:14 | 29.97557 | -96.45432 | 21806 ft | 420 kts | 279° |
| 2026-04-29 14:14 | 29.98078 | -96.48754 | 22086 ft | 422 kts | 279° |
| 2026-04-29 14:14 | 29.98600 | -96.52095 | 22356 ft | 424 kts | 279° |
| 2026-04-29 14:14 | 29.99124 | -96.55455 | 22651 ft | 425 kts | 279° |
| 2026-04-29 14:15 | 29.99646 | -96.58818 | 22932 ft | 427 kts | 279° |
| 2026-04-29 14:15 | 30.00167 | -96.62200 | 23197 ft | 428 kts | 279° |
| 2026-04-29 14:15 | 30.00688 | -96.65592 | 23444 ft | 430 kts | 279° |
| 2026-04-29 14:15 | 30.01210 | -96.69000 | 23671 ft | 431 kts | 279° |
| 2026-04-29 14:16 | 30.01731 | -96.72409 | 23942 ft | 431 kts | 279° |
| 2026-04-29 14:16 | 30.02246 | -96.75777 | 24184 ft | 432 kts | 279° |
| 2026-04-29 14:16 | 30.02768 | -96.79200 | 24421 ft | 433 kts | 279° |
| 2026-04-29 14:16 | 30.03290 | -96.82631 | 24654 ft | 433 kts | 279° |
| 2026-04-29 14:17 | 30.03811 | -96.86056 | 24869 ft | 434 kts | 279° |
| 2026-04-29 14:17 | 30.04334 | -96.89503 | 25036 ft | 436 kts | 279° |
| 2026-04-29 14:17 | 30.04858 | -96.92964 | 25238 ft | 437 kts | 279° |
| 2026-04-29 14:17 | 30.05382 | -96.96429 | 25449 ft | 437 kts | 279° |
| 2026-04-29 14:18 | 30.05904 | -96.99888 | 25661 ft | 437 kts | 279° |
| 2026-04-29 14:18 | 30.06418 | -97.03301 | 25830 ft | 438 kts | 279° |
| 2026-04-29 14:18 | 30.06940 | -97.06773 | 25962 ft | 438 kts | 279° |
| 2026-04-29 14:18 | 30.07462 | -97.10245 | 26076 ft | 439 kts | 279° |
| 2026-04-29 14:19 | 30.07983 | -97.13724 | 26211 ft | 439 kts | 279° |
| 2026-04-29 14:19 | 30.08502 | -97.17196 | 26402 ft | 438 kts | 279° |
| 2026-04-29 14:19 | 30.09019 | -97.20661 | 26620 ft | 436 kts | 279° |
| 2026-04-29 14:19 | 30.09532 | -97.24105 | 26855 ft | 434 kts | 279° |
| 2026-04-29 14:20 | 30.10037 | -97.27495 | 27063 ft | 433 kts | 279° |
| 2026-04-29 14:20 | 30.10550 | -97.30958 | 27305 ft | 431 kts | 279° |
| 2026-04-29 14:20 | 30.11049 | -97.34326 | 27538 ft | 430 kts | 279° |
| 2026-04-29 14:20 | 30.11551 | -97.37721 | 27766 ft | 429 kts | 279° |
| 2026-04-29 14:21 | 30.12053 | -97.41117 | 28016 ft | 427 kts | 279° |
| 2026-04-29 14:21 | 30.12551 | -97.44497 | 28278 ft | 426 kts | 279° |
| 2026-04-29 14:21 | 30.13047 | -97.47871 | 28541 ft | 424 kts | 279° |
| 2026-04-29 14:21 | 30.13534 | -97.51187 | 28858 ft | 423 kts | 279° |
| 2026-04-29 14:22 | 30.14025 | -97.54537 | 29147 ft | 422 kts | 279° |
| 2026-04-29 14:22 | 30.14512 | -97.57871 | 29463 ft | 420 kts | 279° |
| 2026-04-29 14:22 | 30.14997 | -97.61195 | 29756 ft | 418 kts | 279° |
| 2026-04-29 14:22 | 30.15480 | -97.64504 | 30092 ft | 415 kts | 279° |
| 2026-04-29 14:23 | 30.15958 | -97.67791 | 30357 ft | 414 kts | 279° |
| 2026-04-29 14:23 | 30.16433 | -97.71063 | 30582 ft | 413 kts | 279° |
| 2026-04-29 14:23 | 30.16912 | -97.74339 | 30811 ft | 412 kts | 280° |
| 2026-04-29 14:23 | 30.17510 | -97.77579 | 31081 ft | 412 kts | 282° |
| 2026-04-29 14:24 | 30.18166 | -97.80759 | 31310 ft | 411 kts | 283° |
| 2026-04-29 14:24 | 30.18844 | -97.83966 | 31571 ft | 409 kts | 283° |
| 2026-04-29 14:24 | 30.19520 | -97.87159 | 31837 ft | 408 kts | 283° |
| 2026-04-29 14:24 | 30.20190 | -97.90348 | 32083 ft | 407 kts | 283° |
| 2026-04-29 14:25 | 30.20853 | -97.93530 | 32331 ft | 406 kts | 283° |
| 2026-04-29 14:25 | 30.21510 | -97.96708 | 32597 ft | 405 kts | 283° |
| 2026-04-29 14:25 | 30.22163 | -97.99879 | 32846 ft | 404 kts | 283° |
| 2026-04-29 14:25 | 30.22805 | -98.03004 | 33050 ft | 404 kts | 283° |
| 2026-04-29 14:26 | 30.23453 | -98.06170 | 33336 ft | 404 kts | 283° |
| 2026-04-29 14:26 | 30.24101 | -98.09334 | 33611 ft | 402 kts | 283° |
| 2026-04-29 14:26 | 30.24743 | -98.12479 | 33866 ft | 401 kts | 283° |
| 2026-04-29 14:26 | 30.25384 | -98.15620 | 34093 ft | 400 kts | 283° |
| 2026-04-29 14:27 | 30.26021 | -98.18744 | 34298 ft | 399 kts | 283° |
| 2026-04-29 14:27 | 30.26658 | -98.21871 | 34508 ft | 399 kts | 283° |
| 2026-04-29 14:27 | 30.27293 | -98.24995 | 34733 ft | 398 kts | 283° |
| 2026-04-29 14:28 | 30.28545 | -98.31165 | 35194 ft | 395 kts | 283° |
| 2026-04-29 14:28 | 30.29173 | -98.34264 | 35423 ft | 394 kts | 283° |
| 2026-04-29 14:28 | 30.29799 | -98.37348 | 35691 ft | 391 kts | 283° |
| 2026-04-29 14:28 | 30.30437 | -98.40395 | 35974 ft | 389 kts | 283° |
| 2026-04-29 14:29 | 30.31085 | -98.43425 | 36183 ft | 388 kts | 283° |
| 2026-04-29 14:29 | 30.31737 | -98.46456 | 36307 ft | 388 kts | 283° |
| 2026-04-29 14:29 | 30.32387 | -98.49484 | 36503 ft | 387 kts | 283° |
| 2026-04-29 14:29 | 30.33025 | -98.52464 | 36716 ft | 385 kts | 283° |
| 2026-04-29 14:30 | 30.33666 | -98.55469 | 36927 ft | 384 kts | 283° |
| 2026-04-29 14:30 | 30.34303 | -98.58461 | 37145 ft | 382 kts | 283° |
| 2026-04-29 14:30 | 30.34938 | -98.61453 | 37368 ft | 381 kts | 283° |
| 2026-04-29 14:30 | 30.35568 | -98.64428 | 37569 ft | 380 kts | 283° |
| 2026-04-29 14:31 | 30.36197 | -98.67399 | 37732 ft | 380 kts | 283° |
| 2026-04-29 14:31 | 30.36826 | -98.70377 | 37880 ft | 380 kts | 283° |
| 2026-04-29 14:31 | 30.37454 | -98.73355 | 37915 ft | 380 kts | 284° |
| 2026-04-29 14:32 | 30.38704 | -98.79290 | 37919 ft | 377 kts | 284° |
| 2026-04-29 14:32 | 30.39928 | -98.85114 | 37908 ft | 373 kts | 284° |
| 2026-04-29 14:33 | 30.41148 | -98.90937 | 37926 ft | 371 kts | 284° |
| 2026-04-29 14:33 | 30.42362 | -98.96741 | 37928 ft | 370 kts | 284° |
| 2026-04-29 14:34 | 30.43564 | -99.02503 | 37921 ft | 369 kts | 284° |
| 2026-04-29 14:34 | 30.44771 | -99.08299 | 37927 ft | 370 kts | 284° |
| 2026-04-29 14:35 | 30.45980 | -99.14125 | 37933 ft | 374 kts | 284° |
| 2026-04-29 14:35 | 30.47207 | -99.20046 | 37940 ft | 380 kts | 284° |
| 2026-04-29 14:36 | 30.48436 | -99.25995 | 37938 ft | 382 kts | 284° |
| 2026-04-29 14:36 | 30.49678 | -99.32019 | 37937 ft | 384 kts | 284° |
| 2026-04-29 14:37 | 30.50918 | -99.38049 | 37944 ft | 385 kts | 284° |
| 2026-04-29 14:37 | 30.52157 | -99.44094 | 37963 ft | 384 kts | 284° |
| 2026-04-29 14:38 | 30.53385 | -99.50091 | 37979 ft | 383 kts | 284° |
| 2026-04-29 14:38 | 30.54611 | -99.56103 | 37989 ft | 382 kts | 284° |
| 2026-04-29 14:39 | 30.55834 | -99.62109 | 37999 ft | 382 kts | 284° |
| 2026-04-29 14:39 | 30.57052 | -99.68106 | 38018 ft | 381 kts | 284° |
| 2026-04-29 14:40 | 30.58261 | -99.74077 | 38018 ft | 380 kts | 284° |
| 2026-04-29 14:40 | 30.60075 | -99.79757 | 38035 ft | 382 kts | 298° |
| 2026-04-29 14:41 | 30.63419 | -99.84642 | 37980 ft | 394 kts | 313° |
| 2026-04-29 14:41 | 30.67934 | -99.88447 | 37992 ft | 405 kts | 319° |
| 2026-04-29 14:42 | 30.72622 | -99.92200 | 37981 ft | 412 kts | 319° |
| 2026-04-29 14:42 | 30.77346 | -99.96011 | 37965 ft | 414 kts | 319° |
| 2026-04-29 14:43 | 30.82063 | -99.99850 | 37959 ft | 416 kts | 318° |
| 2026-04-29 14:43 | 30.86799 | -100.03721 | 37975 ft | 416 kts | 318° |
| 2026-04-29 14:44 | 30.91537 | -100.07601 | 37970 ft | 416 kts | 318° |
| 2026-04-29 14:44 | 30.95463 | -100.10820 | 37963 ft | 415 kts | 318° |
| 2026-04-29 14:45 | 31.00173 | -100.14685 | 37964 ft | 413 kts | 318° |
| 2026-04-29 14:45 | 31.04877 | -100.18551 | 37961 ft | 412 kts | 318° |
| 2026-04-29 14:46 | 31.09545 | -100.22389 | 37987 ft | 403 kts | 317° |
| 2026-04-29 14:46 | 31.14016 | -100.26063 | 37975 ft | 391 kts | 316° |
| 2026-04-29 14:47 | 31.18455 | -100.29732 | 37973 ft | 390 kts | 316° |
| 2026-04-29 14:47 | 31.22893 | -100.33403 | 38030 ft | 391 kts | 316° |
| 2026-04-29 14:48 | 31.27334 | -100.37076 | 38051 ft | 391 kts | 316° |
| 2026-04-29 14:48 | 31.31758 | -100.40739 | 38066 ft | 393 kts | 316° |
| 2026-04-29 14:49 | 31.36240 | -100.44454 | 38070 ft | 395 kts | 316° |
| 2026-04-29 14:49 | 31.40625 | -100.48304 | 38066 ft | 392 kts | 313° |
| 2026-04-29 14:50 | 31.44876 | -100.52298 | 38053 ft | 391 kts | 313° |
| 2026-04-29 14:50 | 31.49072 | -100.56259 | 38046 ft | 389 kts | 313° |
| 2026-04-29 14:51 | 31.53296 | -100.60229 | 38030 ft | 389 kts | 313° |
| 2026-04-29 14:51 | 31.57518 | -100.64188 | 38012 ft | 388 kts | 313° |
| 2026-04-29 14:52 | 31.61737 | -100.68144 | 37994 ft | 388 kts | 313° |
| 2026-04-29 14:52 | 31.65958 | -100.72104 | 37990 ft | 387 kts | 313° |
| 2026-04-29 14:53 | 31.70168 | -100.76059 | 37977 ft | 386 kts | 313° |
| 2026-04-29 14:53 | 31.74332 | -100.79975 | 37982 ft | 386 kts | 313° |
| 2026-04-29 14:54 | 31.78514 | -100.83914 | 37990 ft | 385 kts | 313° |
| 2026-04-29 14:54 | 31.82691 | -100.87853 | 37986 ft | 385 kts | 313° |
| 2026-04-29 14:55 | 31.86867 | -100.91795 | 37992 ft | 384 kts | 312° |
| 2026-04-29 14:55 | 31.91053 | -100.95751 | 38004 ft | 385 kts | 312° |
| 2026-04-29 14:56 | 31.95208 | -100.99684 | 38002 ft | 385 kts | 312° |
| 2026-04-29 14:56 | 31.99391 | -101.03646 | 37991 ft | 385 kts | 312° |
| 2026-04-29 14:57 | 32.03570 | -101.07610 | 38001 ft | 385 kts | 312° |
| 2026-04-29 14:57 | 32.07747 | -101.11577 | 38005 ft | 385 kts | 312° |
| 2026-04-29 14:58 | 32.11916 | -101.15541 | 38003 ft | 385 kts | 312° |
| 2026-04-29 14:58 | 32.16072 | -101.19498 | 38018 ft | 387 kts | 312° |
| 2026-04-29 14:59 | 32.20270 | -101.23499 | 38009 ft | 387 kts | 312° |
| 2026-04-29 14:59 | 32.24467 | -101.27505 | 38065 ft | 388 kts | 312° |
| 2026-04-29 15:00 | 32.28644 | -101.31495 | 38046 ft | 388 kts | 312° |
| 2026-04-29 15:00 | 32.32838 | -101.35506 | 38065 ft | 388 kts | 312° |
| 2026-04-29 15:01 | 32.37027 | -101.39518 | 38025 ft | 388 kts | 312° |
| 2026-04-29 15:01 | 32.41234 | -101.43554 | 38035 ft | 389 kts | 311° |
| 2026-04-29 15:02 | 32.45452 | -101.47604 | 38023 ft | 390 kts | 311° |
| 2026-04-29 15:02 | 32.49643 | -101.51633 | 38020 ft | 390 kts | 311° |
| 2026-04-29 15:03 | 32.53867 | -101.55698 | 38026 ft | 390 kts | 311° |
| 2026-04-29 15:03 | 32.58086 | -101.59764 | 38043 ft | 390 kts | 311° |
| 2026-04-29 15:04 | 32.62278 | -101.63808 | 38102 ft | 391 kts | 311° |
| 2026-04-29 15:04 | 32.66498 | -101.67886 | 38100 ft | 391 kts | 311° |
| 2026-04-29 15:05 | 32.70718 | -101.71969 | 38103 ft | 391 kts | 311° |
| 2026-04-29 15:05 | 32.74940 | -101.76058 | 38123 ft | 391 kts | 311° |
| 2026-04-29 15:06 | 32.79161 | -101.80151 | 38136 ft | 391 kts | 311° |
| 2026-04-29 15:06 | 32.83383 | -101.84251 | 38145 ft | 391 kts | 311° |
| 2026-04-29 15:07 | 32.87570 | -101.88321 | 38129 ft | 391 kts | 311° |
| 2026-04-29 15:07 | 32.91786 | -101.92426 | 38127 ft | 391 kts | 311° |
| 2026-04-29 15:08 | 32.95979 | -101.96514 | 38094 ft | 391 kts | 311° |
| 2026-04-29 15:08 | 33.00194 | -102.00627 | 38075 ft | 391 kts | 311° |
| 2026-04-29 15:09 | 33.04403 | -102.04741 | 38038 ft | 391 kts | 311° |
| 2026-04-29 15:09 | 33.08613 | -102.08860 | 38026 ft | 391 kts | 311° |
| 2026-04-29 15:10 | 33.12805 | -102.12969 | 38033 ft | 393 kts | 311° |
| 2026-04-29 15:10 | 33.17029 | -102.17111 | 38029 ft | 393 kts | 311° |
| 2026-04-29 15:11 | 33.21251 | -102.21258 | 38035 ft | 392 kts | 311° |
| 2026-04-29 15:11 | 33.25442 | -102.25379 | 38061 ft | 392 kts | 311° |
| 2026-04-29 15:12 | 33.29655 | -102.29529 | 38092 ft | 392 kts | 311° |
| 2026-04-29 15:12 | 33.33862 | -102.33677 | 38215 ft | 392 kts | 311° |
| 2026-04-29 15:13 | 33.38020 | -102.37772 | 38129 ft | 379 kts | 311° |
| 2026-04-29 15:13 | 33.42061 | -102.41763 | 38143 ft | 375 kts | 311° |
| 2026-04-29 15:14 | 33.46056 | -102.45723 | 38170 ft | 375 kts | 311° |
| 2026-04-29 15:14 | 33.50074 | -102.49711 | 38172 ft | 375 kts | 311° |
| 2026-04-29 15:15 | 33.54101 | -102.53709 | 38165 ft | 376 kts | 311° |
| 2026-04-29 15:15 | 33.58117 | -102.57701 | 38203 ft | 377 kts | 310° |
| 2026-04-29 15:16 | 33.62158 | -102.61720 | 38137 ft | 377 kts | 310° |
| 2026-04-29 15:16 | 33.66195 | -102.65739 | 38095 ft | 376 kts | 310° |
| 2026-04-29 15:17 | 33.70223 | -102.69756 | 38075 ft | 376 kts | 310° |
| 2026-04-29 15:17 | 33.74220 | -102.73746 | 38050 ft | 375 kts | 310° |
| 2026-04-29 15:18 | 33.78236 | -102.77762 | 38050 ft | 375 kts | 310° |
| 2026-04-29 15:18 | 33.82252 | -102.81783 | 38068 ft | 376 kts | 310° |
| 2026-04-29 15:19 | 33.86271 | -102.85811 | 38060 ft | 376 kts | 310° |
| 2026-04-29 15:19 | 33.90288 | -102.89842 | 38058 ft | 376 kts | 310° |
| 2026-04-29 15:20 | 33.94309 | -102.93883 | 38053 ft | 376 kts | 309° |
| 2026-04-29 15:20 | 33.98293 | -102.97891 | 38057 ft | 376 kts | 309° |
| 2026-04-29 15:21 | 34.02308 | -103.01936 | 38058 ft | 376 kts | 309° |
| 2026-04-29 15:21 | 34.06322 | -103.05985 | 38073 ft | 376 kts | 309° |
| 2026-04-29 15:22 | 34.10343 | -103.10046 | 38081 ft | 376 kts | 309° |
| 2026-04-29 15:22 | 34.14315 | -103.14062 | 38095 ft | 375 kts | 309° |
| 2026-04-29 15:23 | 34.18314 | -103.18111 | 38127 ft | 374 kts | 309° |
| 2026-04-29 15:23 | 34.22304 | -103.22157 | 38151 ft | 375 kts | 309° |
| 2026-04-29 15:24 | 34.26298 | -103.26213 | 38174 ft | 375 kts | 309° |
| 2026-04-29 15:24 | 34.30298 | -103.30279 | 38203 ft | 375 kts | 309° |
| 2026-04-29 15:25 | 34.34295 | -103.34347 | 38191 ft | 374 kts | 309° |
| 2026-04-29 15:25 | 34.38262 | -103.38389 | 38191 ft | 374 kts | 309° |
| 2026-04-29 15:26 | 34.42239 | -103.42447 | 38192 ft | 373 kts | 309° |
| 2026-04-29 15:26 | 34.46209 | -103.46504 | 38063 ft | 373 kts | 309° |
| 2026-04-29 15:27 | 34.50154 | -103.50541 | 38073 ft | 373 kts | 308° |
| 2026-04-29 15:27 | 34.54134 | -103.54619 | 38062 ft | 375 kts | 308° |
| 2026-04-29 15:28 | 34.57801 | -103.58978 | 38061 ft | 358 kts | 295° |
| 2026-04-29 15:28 | 34.59861 | -103.64289 | 38058 ft | 347 kts | 283° |
| 2026-04-29 15:29 | 34.61236 | -103.69904 | 38047 ft | 347 kts | 282° |
| 2026-04-29 15:30 | 34.63976 | -103.81178 | 38044 ft | 348 kts | 282° |
| 2026-04-29 15:30 | 34.65360 | -103.86814 | 38029 ft | 348 kts | 282° |
| 2026-04-29 15:31 | 34.66738 | -103.92424 | 38051 ft | 348 kts | 282° |
| 2026-04-29 15:31 | 34.68124 | -103.98076 | 38054 ft | 349 kts | 282° |
| 2026-04-29 15:32 | 34.69276 | -104.02780 | 38074 ft | 350 kts | 282° |
| 2026-04-29 15:32 | 34.70660 | -104.08448 | 38047 ft | 350 kts | 282° |
| 2026-04-29 15:33 | 34.72044 | -104.14125 | 38040 ft | 350 kts | 282° |
| 2026-04-29 15:33 | 34.73419 | -104.19776 | 38058 ft | 350 kts | 282° |
| 2026-04-29 15:34 | 34.74800 | -104.25466 | 38044 ft | 350 kts | 282° |
| 2026-04-29 15:34 | 34.76177 | -104.31155 | 38078 ft | 351 kts | 282° |
| 2026-04-29 15:35 | 34.77555 | -104.36855 | 38101 ft | 351 kts | 282° |
| 2026-04-29 15:35 | 34.78929 | -104.42556 | 38138 ft | 351 kts | 282° |
| 2026-04-29 15:36 | 34.80301 | -104.48262 | 38164 ft | 352 kts | 281° |
| 2026-04-29 15:36 | 34.81676 | -104.53990 | 38178 ft | 352 kts | 281° |
| 2026-04-29 15:37 | 34.83036 | -104.59673 | 38205 ft | 352 kts | 281° |
| 2026-04-29 15:37 | 34.84012 | -104.65469 | 38218 ft | 348 kts | 274° |
| 2026-04-29 15:38 | 34.84516 | -104.71327 | 38202 ft | 348 kts | 274° |
| 2026-04-29 15:38 | 34.85016 | -104.77191 | 38025 ft | 349 kts | 274° |
| 2026-04-29 15:38 | 34.85273 | -104.80095 | 37682 ft | 341 kts | 274° |
| 2026-04-29 15:39 | 34.85527 | -104.82926 | 37046 ft | 340 kts | 274° |
| 2026-04-29 15:39 | 34.85786 | -104.85798 | 36260 ft | 344 kts | 273° |
| 2026-04-29 15:39 | 34.86049 | -104.88719 | 35438 ft | 349 kts | 273° |
| 2026-04-29 15:39 | 34.86318 | -104.91684 | 34600 ft | 355 kts | 273° |
| 2026-04-29 15:40 | 34.86590 | -104.94693 | 33697 ft | 360 kts | 273° |
| 2026-04-29 15:40 | 34.86866 | -104.97751 | 32760 ft | 365 kts | 273° |
| 2026-04-29 15:40 | 34.87144 | -105.00840 | 31866 ft | 369 kts | 273° |
| 2026-04-29 15:40 | 34.87426 | -105.03965 | 31010 ft | 372 kts | 274° |
| 2026-04-29 15:41 | 34.87709 | -105.07110 | 30115 ft | 376 kts | 274° |
| 2026-04-29 15:41 | 34.87994 | -105.10295 | 29011 ft | 380 kts | 274° |
| 2026-04-29 15:41 | 34.88283 | -105.13523 | 27802 ft | 386 kts | 274° |
| 2026-04-29 15:41 | 34.88574 | -105.16799 | 26528 ft | 394 kts | 274° |
| 2026-04-29 15:42 | 34.88872 | -105.20157 | 25300 ft | 402 kts | 273° |
| 2026-04-29 15:42 | 34.89172 | -105.23543 | 24431 ft | 402 kts | 273° |
| 2026-04-29 15:42 | 34.89471 | -105.26914 | 23731 ft | 397 kts | 273° |
| 2026-04-29 15:42 | 34.89765 | -105.30246 | 23111 ft | 390 kts | 273° |
| 2026-04-29 15:43 | 34.90045 | -105.33403 | 22990 ft | 372 kts | 273° |
| 2026-04-29 15:43 | 34.90314 | -105.36465 | 22875 ft | 355 kts | 273° |
| 2026-04-29 15:43 | 34.90570 | -105.39409 | 22751 ft | 342 kts | 272° |
| 2026-04-29 15:43 | 34.90817 | -105.42246 | 22623 ft | 329 kts | 272° |
| 2026-04-29 15:44 | 34.91054 | -105.44986 | 22523 ft | 321 kts | 272° |
| 2026-04-29 15:44 | 34.91285 | -105.47672 | 22430 ft | 314 kts | 272° |
| 2026-04-29 15:44 | 34.91509 | -105.50295 | 22164 ft | 308 kts | 272° |
| 2026-04-29 15:44 | 34.91724 | -105.52870 | 21913 ft | 303 kts | 272° |
| 2026-04-29 15:45 | 34.91931 | -105.55386 | 21665 ft | 303 kts | 272° |
| 2026-04-29 15:45 | 34.92141 | -105.57972 | 21423 ft | 309 kts | 272° |
| 2026-04-29 15:45 | 34.92355 | -105.60604 | 21181 ft | 313 kts | 272° |
| 2026-04-29 15:45 | 34.92571 | -105.63237 | 20930 ft | 310 kts | 272° |
| 2026-04-29 15:46 | 34.92785 | -105.65851 | 20677 ft | 308 kts | 272° |
| 2026-04-29 15:46 | 34.92997 | -105.68447 | 20430 ft | 307 kts | 272° |
| 2026-04-29 15:46 | 34.93208 | -105.71033 | 20180 ft | 305 kts | 272° |
| 2026-04-29 15:46 | 34.93416 | -105.73595 | 19873 ft | 302 kts | 273° |
| 2026-04-29 15:47 | 34.93619 | -105.76098 | 19515 ft | 299 kts | 273° |
| 2026-04-29 15:47 | 34.93824 | -105.78634 | 19150 ft | 300 kts | 273° |
| 2026-04-29 15:47 | 34.94028 | -105.81172 | 18784 ft | 301 kts | 273° |
| 2026-04-29 15:47 | 34.94232 | -105.83713 | 18428 ft | 301 kts | 273° |
| 2026-04-29 15:48 | 34.94436 | -105.86261 | 18013 ft | 302 kts | 273° |
| 2026-04-29 15:48 | 34.94640 | -105.88818 | 17614 ft | 302 kts | 273° |
| 2026-04-29 15:48 | 34.94843 | -105.91358 | 17244 ft | 299 kts | 273° |
| 2026-04-29 15:48 | 34.95044 | -105.93870 | 16861 ft | 297 kts | 273° |
| 2026-04-29 15:49 | 34.95239 | -105.96335 | 16498 ft | 296 kts | 273° |
| 2026-04-29 15:49 | 34.95437 | -105.98842 | 16140 ft | 297 kts | 273° |
| 2026-04-29 15:49 | 34.95631 | -106.01366 | 15765 ft | 299 kts | 272° |
| 2026-04-29 15:49 | 34.95711 | -106.03916 | 15285 ft | 302 kts | 269° |
| 2026-04-29 15:50 | 34.95725 | -106.06477 | 14900 ft | 300 kts | 269° |
| 2026-04-29 15:50 | 34.95732 | -106.08989 | 14509 ft | 299 kts | 269° |
| 2026-04-29 15:50 | 34.95745 | -106.11528 | 14139 ft | 298 kts | 269° |
| 2026-04-29 15:50 | 34.95764 | -106.14052 | 13791 ft | 296 kts | 270° |
| 2026-04-29 15:51 | 34.95787 | -106.16518 | 13656 ft | 286 kts | 270° |
| 2026-04-29 15:51 | 34.95811 | -106.18914 | 13516 ft | 277 kts | 270° |
| 2026-04-29 15:51 | 34.95834 | -106.21226 | 13373 ft | 269 kts | 270° |
| 2026-04-29 15:51 | 34.95856 | -106.23521 | 13062 ft | 271 kts | 270° |
| 2026-04-29 15:52 | 34.95878 | -106.25806 | 12779 ft | 274 kts | 270° |
| 2026-04-29 15:52 | 34.95900 | -106.28116 | 12489 ft | 271 kts | 270° |
| 2026-04-29 15:52 | 34.95923 | -106.30411 | 12203 ft | 269 kts | 269° |
| 2026-04-29 15:52 | 34.95944 | -106.32689 | 11913 ft | 268 kts | 269° |
| 2026-04-29 15:53 | 34.95965 | -106.34961 | 11611 ft | 268 kts | 270° |
| 2026-04-29 15:53 | 34.95985 | -106.37249 | 11301 ft | 271 kts | 270° |
| 2026-04-29 15:53 | 34.95976 | -106.39564 | 11022 ft | 275 kts | 267° |
| 2026-04-29 15:53 | 34.95899 | -106.41877 | 10853 ft | 269 kts | 266° |
| 2026-04-29 15:54 | 34.95812 | -106.44134 | 10723 ft | 263 kts | 266° |
| 2026-04-29 15:54 | 34.95731 | -106.46341 | 10608 ft | 257 kts | 266° |
| 2026-04-29 15:54 | 34.95656 | -106.48492 | 10497 ft | 250 kts | 267° |
| 2026-04-29 15:54 | 34.95587 | -106.50579 | 10401 ft | 243 kts | 267° |
| 2026-04-29 15:55 | 34.95520 | -106.52587 | 10304 ft | 236 kts | 267° |
| 2026-04-29 15:55 | 34.95455 | -106.54557 | 10212 ft | 229 kts | 267° |
| 2026-04-29 15:55 | 34.95382 | -106.56499 | 9960 ft | 229 kts | 266° |
| 2026-04-29 15:55 | 34.95296 | -106.58441 | 9706 ft | 228 kts | 266° |
| 2026-04-29 15:56 | 34.95210 | -106.60373 | 9449 ft | 228 kts | 266° |
| 2026-04-29 15:56 | 34.95124 | -106.62304 | 9175 ft | 228 kts | 266° |
| 2026-04-29 15:56 | 34.95038 | -106.64240 | 8906 ft | 228 kts | 266° |
| 2026-04-29 15:56 | 34.94952 | -106.66176 | 8649 ft | 229 kts | 266° |
| 2026-04-29 15:57 | 34.94865 | -106.68119 | 8373 ft | 230 kts | 266° |
| 2026-04-29 15:57 | 34.94769 | -106.70067 | 8173 ft | 227 kts | 264° |
| 2026-04-29 15:57 | 34.94615 | -106.71937 | 8023 ft | 222 kts | 263° |
| 2026-04-29 15:57 | 34.94443 | -106.73810 | 7925 ft | 222 kts | 263° |
| 2026-04-29 15:58 | 34.94263 | -106.75682 | 7840 ft | 223 kts | 263° |
| 2026-04-29 15:58 | 34.94080 | -106.77568 | 7789 ft | 224 kts | 263° |
| 2026-04-29 15:58 | 34.93898 | -106.79472 | 7735 ft | 228 kts | 263° |
| 2026-04-29 15:58 | 34.93722 | -106.81401 | 7717 ft | 229 kts | 263° |
| 2026-04-29 15:59 | 34.93543 | -106.83327 | 7682 ft | 228 kts | 264° |
| 2026-04-29 15:59 | 34.93373 | -106.85246 | 7676 ft | 228 kts | 263° |
| 2026-04-29 15:59 | 34.93403 | -106.87167 | 7639 ft | 228 kts | 286° |
| 2026-04-29 15:59 | 34.94224 | -106.88816 | 7515 ft | 232 kts | 315° |
| 2026-04-29 16:00 | 34.95618 | -106.89811 | 7521 ft | 238 kts | 342° |
| 2026-04-29 16:00 | 34.97275 | -106.89873 | 7509 ft | 243 kts | 12° |
| 2026-04-29 16:00 | 34.98745 | -106.88868 | 7472 ft | 247 kts | 46° |
| 2026-04-29 16:00 | 34.99679 | -106.87146 | 7638 ft | 249 kts | 64° |
| 2026-04-29 16:01 | 35.00397 | -106.85185 | 7613 ft | 250 kts | 66° |
| 2026-04-29 16:01 | 35.01064 | -106.83251 | 7573 ft | 250 kts | 66° |
| 2026-04-29 16:01 | 35.01747 | -106.81301 | 7531 ft | 249 kts | 66° |
| 2026-04-29 16:01 | 35.02437 | -106.79369 | 7494 ft | 247 kts | 66° |
| 2026-04-29 16:02 | 35.03127 | -106.77455 | 7466 ft | 244 kts | 65° |
| 2026-04-29 16:02 | 35.03803 | -106.75586 | 7407 ft | 237 kts | 65° |
| 2026-04-29 16:02 | 35.04432 | -106.73743 | 7253 ft | 234 kts | 75° |
| 2026-04-29 16:02 | 35.04493 | -106.71815 | 7013 ft | 222 kts | 96° |
| 2026-04-29 16:03 | 35.04465 | -106.69965 | 6724 ft | 212 kts | 89° |
| 2026-04-29 16:03 | 35.04479 | -106.68209 | 6482 ft | 203 kts | 92° |
| 2026-04-29 16:03 | 35.04466 | -106.66566 | 6271 ft | 187 kts | 92° |
| 2026-04-29 16:03 | 35.04455 | -106.65023 | 5970 ft | 175 kts | 91° |
| 2026-04-29 16:04 | 35.04436 | -106.63543 | 5705 ft | 176 kts | 91° |
| 2026-04-29 16:04 | 35.04431 | -106.62079 | 5391 ft | 168 kts | 90° |
| 2026-04-29 16:04 | 35.04427 | -106.60744 | 5316 ft | 136 kts | 91° |
| 2026-04-29 16:04 | 35.04424 | -106.59856 | 5319 ft | 73 kts | 90° |
| 2026-04-29 16:05 | 35.04470 | -106.59685 | 5316 ft | 9 kts | 25° |
| 2026-04-29 16:05 | 35.04529 | -106.59632 | 5313 ft | 11 kts | 25° |
| 2026-04-29 16:05 | 35.04584 | -106.59680 | 5311 ft | 11 kts | 285° |
| 2026-04-29 16:05 | 35.04582 | -106.59795 | 5317 ft | 14 kts | 267° |
| 2026-04-29 16:06 | 35.04577 | -106.59912 | 5320 ft | 14 kts | 267° |
| 2026-04-29 16:06 | 35.04573 | -106.60024 | 5320 ft | 13 kts | 270° |
| 2026-04-29 16:06 | 35.04574 | -106.60147 | 5320 ft | 20 kts | 270° |
| 2026-04-29 16:06 | 35.04575 | -106.60316 | 5320 ft | 20 kts | 270° |
| 2026-04-29 16:07 | 35.04576 | -106.60479 | 5320 ft | 19 kts | 270° |
| 2026-04-29 16:07 | 35.04577 | -106.60584 | 5320 ft | 19 kts | 271° |
| 2026-04-29 16:07 | 35.04580 | -106.60790 | 5318 ft | 18 kts | 271° |
| 2026-04-29 16:07 | 35.04579 | -106.60938 | 5314 ft | 17 kts | 271° |
| 2026-04-29 16:08 | 35.04581 | -106.61080 | 5314 ft | 16 kts | 271° |
| 2026-04-29 16:08 | 35.04582 | -106.61215 | 5314 ft | 16 kts | 270° |
| 2026-04-29 16:08 | 35.04597 | -106.61314 | 5315 ft | 7 kts | 331° |
| 2026-04-29 16:08 | 35.04648 | -106.61314 | 5313 ft | 7 kts | 3° |
| 2026-04-29 16:09 | 35.04698 | -106.61311 | 5316 ft | 7 kts | 3° |
| 2026-04-29 16:09 | 35.04746 | -106.61308 | 5320 ft | 7 kts | 2° |
| 2026-04-29 16:09 | 35.04793 | -106.61306 | 5317 ft | 7 kts | 2° |
| 2026-04-29 16:09 | 35.04830 | -106.61340 | 5318 ft | 7 kts | 288° |
| 2026-04-29 16:10 | 35.04835 | -106.61400 | 5319 ft | 7 kts | 271° |
| 2026-04-29 16:10 | 35.04831 | -106.61458 | 5316 ft | 7 kts | 241° |
| 2026-04-29 16:10 | 35.04793 | -106.61475 | 5318 ft | 2 kts | 182° |
| 2026-04-29 16:10 | 35.04792 | -106.61475 | 5318 ft | 1 kts | 182° |
| 2026-04-29 16:11 | 35.04788 | -106.61475 | 5318 ft | 0 kts | 182° |